createdAt,value
2022-12-15T00:02:18.654Z,5.60
2022-12-15T00:05:04.261Z,5.70
2022-12-15T00:07:49.362Z,6.23
2022-12-15T00:10:34.686Z,5.10
2022-12-15T00:13:19.874Z,6.50
2022-12-15T00:16:07.056Z,6.63
2022-12-15T00:18:52.453Z,7.67
2022-12-15T00:21:37.647Z,5.83
2022-12-15T00:24:23.144Z,7.20
2022-12-15T00:27:08.398Z,6.13
2022-12-15T00:29:53.558Z,5.90
2022-12-15T00:32:38.578Z,6.23
2022-12-15T00:35:24.885Z,8.23
2022-12-15T00:38:09.702Z,7.23
2022-12-15T00:40:36.424Z,7.57
2022-12-15T00:43:03.556Z,6.70
2022-12-15T00:45:48.737Z,7.13
2022-12-15T00:48:15.755Z,6.37
2022-12-15T00:50:54.201Z,7.10
2022-12-15T00:53:41.717Z,7.07
2022-12-15T00:56:28.128Z,6.80
2022-12-15T00:59:13.838Z,6.30
2022-12-15T01:01:59.573Z,7.23
2022-12-15T01:04:45.312Z,6.23
2022-12-15T01:07:30.516Z,6.80
2022-12-15T01:10:15.748Z,6.13
2022-12-15T01:13:01.133Z,7.10
2022-12-15T01:15:46.589Z,6.70
2022-12-15T01:18:31.560Z,5.77
2022-12-15T01:21:03.480Z,7.37
2022-12-15T01:23:31.289Z,6.57
2022-12-15T01:25:58.497Z,6.23
2022-12-15T01:28:25.393Z,5.10
2022-12-15T01:30:52.842Z,5.13
2022-12-15T01:33:20.467Z,3.80
2022-12-15T01:36:01.768Z,4.37
2022-12-15T01:38:28.990Z,5.37
2022-12-15T01:40:59.518Z,3.80
2022-12-15T01:43:30.409Z,4.93
2022-12-15T01:46:20.348Z,3.97
2022-12-15T01:48:51.765Z,3.53
2022-12-15T01:51:33.719Z,6.20
2022-12-15T01:54:17.748Z,3.83
2022-12-15T01:56:48.303Z,4.30
2022-12-15T01:59:22.675Z,4.00
2022-12-15T02:01:49.687Z,3.67
2022-12-15T02:04:19.826Z,2.97
2022-12-15T02:06:46.396Z,3.30
2022-12-15T02:09:13.469Z,4.60
2022-12-15T02:12:05.858Z,3.57
2022-12-15T02:14:48.917Z,3.40
2022-12-15T02:17:45.598Z,4.47
2022-12-15T02:20:42.052Z,3.17
2022-12-15T02:23:46.330Z,3.93
2022-12-15T02:26:25.419Z,3.10
2022-12-15T02:29:29.191Z,2.30
2022-12-15T02:32:11.533Z,5.33
2022-12-15T02:34:49.167Z,4.07
2022-12-15T02:37:22.625Z,4.87
2022-12-15T02:39:49.244Z,5.23
2022-12-15T02:42:16.420Z,3.30
2022-12-15T02:44:43.547Z,4.20
2022-12-15T02:47:27.552Z,4.30
2022-12-15T02:50:29.307Z,3.90
2022-12-15T02:53:37.135Z,6.33
2022-12-15T02:56:19.226Z,8.67
2022-12-15T02:59:11.222Z,6.23
2022-12-15T03:01:50.081Z,3.93
2022-12-15T03:04:18.200Z,3.10
2022-12-15T03:06:44.951Z,4.10
2022-12-15T03:09:12.511Z,3.43
2022-12-15T03:11:39.180Z,4.27
2022-12-15T03:14:05.776Z,5.57
2022-12-15T03:16:32.440Z,5.67
2022-12-15T03:18:59.066Z,5.50
2022-12-15T03:21:25.644Z,6.23
2022-12-15T03:23:52.240Z,5.67
2022-12-15T03:26:18.831Z,6.07
2022-12-15T03:28:45.531Z,5.47
2022-12-15T03:31:12.138Z,5.13
2022-12-15T03:33:38.784Z,5.33
2022-12-15T03:36:05.603Z,5.60
2022-12-15T03:38:32.227Z,5.03
2022-12-15T03:40:58.853Z,5.27
2022-12-15T03:43:25.480Z,5.60
2022-12-15T03:45:52.339Z,5.60
2022-12-15T03:48:18.959Z,5.27
2022-12-15T03:50:47.595Z,5.57
2022-12-15T03:53:14.293Z,6.27
2022-12-15T03:55:40.856Z,5.63
2022-12-15T03:58:07.630Z,6.37
2022-12-15T04:00:34.685Z,6.43
2022-12-15T04:03:01.427Z,6.10
2022-12-15T04:05:30.797Z,6.27
2022-12-15T04:07:59.093Z,5.97
2022-12-15T04:10:33.539Z,4.90
2022-12-15T04:13:04.214Z,5.37
2022-12-15T04:15:30.850Z,5.13
2022-12-15T04:17:58.393Z,4.47
2022-12-15T04:20:24.985Z,5.33
2022-12-15T04:22:51.775Z,5.43
2022-12-15T04:25:40.835Z,4.87
2022-12-15T04:28:27.261Z,5.13
2022-12-15T04:31:24.896Z,5.50
2022-12-15T04:34:13.213Z,4.87
2022-12-15T04:37:00.903Z,5.03
2022-12-15T04:39:46.333Z,4.83
2022-12-15T04:42:31.708Z,3.90
2022-12-15T04:45:21.264Z,4.57
2022-12-15T04:48:07.097Z,5.70
2022-12-15T04:50:52.436Z,4.47
2022-12-15T04:53:38.711Z,5.87
2022-12-15T04:56:31.135Z,6.53
2022-12-15T04:59:16.564Z,6.20
2022-12-15T05:02:02.596Z,5.53
2022-12-15T05:04:47.961Z,6.23
2022-12-15T05:07:33.925Z,7.33
2022-12-15T05:10:19.173Z,6.07
2022-12-15T05:13:04.243Z,5.83
2022-12-15T05:15:51.308Z,7.17
2022-12-15T05:18:36.382Z,6.70
2022-12-15T05:21:21.940Z,6.30
2022-12-15T05:24:07.327Z,6.07
2022-12-15T05:26:53.469Z,8.27
2022-12-15T05:29:39.239Z,6.00
2022-12-15T05:32:06.751Z,6.40
2022-12-15T05:34:35.105Z,7.10
2022-12-15T05:37:03.253Z,7.20
2022-12-15T05:39:29.930Z,7.63
2022-12-15T05:41:57.333Z,8.13
2022-12-15T05:44:25.085Z,5.23
2022-12-15T05:46:51.814Z,5.00
2022-12-15T05:49:19.185Z,7.03
2022-12-15T05:51:47.855Z,6.90
2022-12-15T05:54:16.765Z,6.20
2022-12-15T05:56:43.751Z,5.10
2022-12-15T05:59:10.361Z,4.77
2022-12-15T06:01:37.202Z,5.00
2022-12-15T06:04:04.370Z,5.40
2022-12-15T06:06:31.076Z,3.77
2022-12-15T06:08:57.772Z,4.03
2022-12-15T06:11:24.563Z,3.93
2022-12-15T06:13:51.158Z,5.37
2022-12-15T06:16:21.970Z,6.87
2022-12-15T06:18:52.446Z,5.73
2022-12-15T06:21:25.786Z,5.10
2022-12-15T06:23:53.308Z,3.80
2022-12-15T06:26:30.095Z,5.33
2022-12-15T06:28:58.771Z,3.97
2022-12-15T06:31:26.699Z,4.23
2022-12-15T06:34:01.409Z,5.60
2022-12-15T06:36:30.728Z,4.17
2022-12-15T06:39:04.332Z,5.23
2022-12-15T06:41:32.042Z,4.87
2022-12-15T06:43:59.657Z,5.07
2022-12-15T06:46:28.167Z,4.83
2022-12-15T06:48:55.201Z,5.20
2022-12-15T06:51:22.361Z,4.37
2022-12-15T06:53:49.919Z,5.40
2022-12-15T06:56:30.637Z,4.40
2022-12-15T06:58:59.622Z,5.03
2022-12-15T07:01:26.929Z,4.40
2022-12-15T07:03:54.694Z,5.10
2022-12-15T07:06:21.719Z,4.97
2022-12-15T07:08:52.506Z,4.63
2022-12-15T07:11:21.123Z,4.70
2022-12-15T07:13:52.518Z,7.37
2022-12-15T07:16:20.419Z,7.83
2022-12-15T07:18:47.388Z,8.70
2022-12-15T07:21:14.081Z,7.73
2022-12-15T07:23:54.043Z,8.07
2022-12-15T07:26:22.027Z,6.87
2022-12-15T07:28:48.617Z,7.20
2022-12-15T07:31:15.871Z,8.20
2022-12-15T07:33:42.975Z,7.53
2022-12-15T07:36:11.095Z,7.83
2022-12-15T07:38:38.235Z,8.53
2022-12-15T07:41:09.987Z,5.93
2022-12-15T07:43:38.117Z,5.20
2022-12-15T07:46:05.559Z,5.00
2022-12-15T07:48:33.248Z,4.47
2022-12-15T07:51:11.103Z,5.10
2022-12-15T07:53:42.194Z,5.10
2022-12-15T07:56:10.162Z,6.70
2022-12-15T07:58:38.163Z,4.53
2022-12-15T08:01:07.712Z,7.13
2022-12-15T08:03:36.050Z,7.07
2022-12-15T08:06:08.001Z,6.67
2022-12-15T08:08:35.827Z,6.90
2022-12-15T08:11:07.424Z,6.30
2022-12-15T08:16:25.370Z,6.60
2022-12-15T08:18:52.144Z,6.23
2022-12-15T08:21:21.199Z,7.13
2022-12-15T08:23:48.160Z,7.50
2022-12-15T08:26:17.629Z,8.10
2022-12-15T08:28:44.318Z,8.70
2022-12-15T08:31:22.147Z,8.33
2022-12-15T08:33:49.248Z,7.77
2022-12-15T08:36:18.293Z,7.80
2022-12-15T08:38:46.335Z,8.00
2022-12-15T08:41:19.320Z,7.60
2022-12-15T08:43:49.554Z,8.50
2022-12-15T08:46:21.695Z,9.50
2022-12-15T08:48:49.496Z,8.33
2022-12-15T08:51:17.432Z,9.93
2022-12-15T08:53:44.327Z,9.13
2022-12-15T08:56:18.613Z,9.70
2022-12-15T08:58:47.299Z,9.77
2022-12-15T09:01:23.948Z,9.10
2022-12-15T09:03:53.850Z,8.67
2022-12-15T09:06:32.716Z,8.43
2022-12-15T09:09:03.056Z,7.57
2022-12-15T09:11:30.412Z,9.67
2022-12-15T09:13:57.918Z,9.03
2022-12-15T09:16:25.494Z,8.20
2022-12-15T09:18:54.850Z,9.93
2022-12-15T09:21:25.157Z,10.17
2022-12-15T09:23:54.291Z,10.67
2022-12-15T09:26:23.241Z,10.57
2022-12-15T09:28:51.087Z,10.17
2022-12-15T09:31:22.027Z,10.47
2022-12-15T09:33:51.247Z,9.17
2022-12-15T09:36:18.031Z,10.37
2022-12-15T09:38:45.011Z,8.80
2022-12-15T09:41:17.224Z,10.63
2022-12-15T09:44:06.791Z,12.50
2022-12-15T09:46:34.268Z,11.10
2022-12-15T09:49:10.914Z,11.07
2022-12-15T09:51:48.027Z,12.33
2022-12-15T09:54:14.939Z,11.27
2022-12-15T09:56:50.270Z,9.57
2022-12-15T09:59:26.399Z,9.53
2022-12-15T10:02:28.674Z,9.27
2022-12-15T10:05:03.466Z,8.97
2022-12-15T10:07:37.281Z,9.97
2022-12-15T10:10:12.174Z,9.43
2022-12-15T10:12:53.198Z,8.80
2022-12-15T10:15:27.524Z,8.60
2022-12-15T10:18:11.907Z,9.73
2022-12-15T10:20:38.608Z,11.17
2022-12-15T10:23:14.232Z,12.70
2022-12-15T10:25:47.299Z,9.70
2022-12-15T10:28:33.223Z,9.80
2022-12-15T10:31:07.998Z,8.63
2022-12-15T10:33:47.174Z,12.03
2022-12-15T10:36:16.790Z,14.03
2022-12-15T10:38:50.416Z,14.33
2022-12-15T10:41:23.694Z,15.07
2022-12-15T10:43:52.068Z,13.30
2022-12-15T10:46:23.411Z,13.33
2022-12-15T10:49:23.249Z,15.40
2022-12-15T10:51:57.308Z,15.77
2022-12-15T10:54:31.790Z,17.13
2022-12-15T10:57:02.957Z,13.50
2022-12-15T10:59:36.376Z,12.13
2022-12-15T11:02:25.675Z,11.93
2022-12-15T11:04:57.954Z,10.57
2022-12-15T11:07:36.071Z,11.97
2022-12-15T11:10:25.344Z,11.97
2022-12-15T11:13:13.779Z,10.83
2022-12-15T11:15:53.216Z,11.13
2022-12-15T11:19:00.000Z,10.30
2022-12-15T11:21:35.099Z,8.07
2022-12-15T11:24:22.608Z,12.00
2022-12-15T11:26:53.035Z,11.37
2022-12-15T11:29:57.178Z,11.90
2022-12-15T11:32:27.281Z,12.97
2022-12-15T11:34:55.242Z,18.10
2022-12-15T11:37:37.343Z,13.07
2022-12-15T11:40:36.766Z,17.63
2022-12-15T11:43:26.933Z,17.33
2022-12-15T11:46:18.266Z,19.77
2022-12-15T11:49:19.938Z,19.07
2022-12-15T11:51:57.903Z,18.77
2022-12-15T11:54:28.393Z,19.40
2022-12-15T11:57:32.427Z,20.67
2022-12-15T12:00:15.851Z,20.60
2022-12-15T12:03:10.182Z,21.13
2022-12-15T12:05:42.662Z,20.77
2022-12-15T12:08:29.473Z,21.20
2022-12-15T12:11:36.923Z,21.27
2022-12-15T12:14:34.175Z,22.93
2022-12-15T12:17:12.051Z,20.60
2022-12-15T12:19:45.715Z,20.93
2022-12-15T12:22:40.233Z,20.80
2022-12-15T12:25:15.469Z,18.53
2022-12-15T12:28:13.551Z,20.87
2022-12-15T12:30:45.433Z,21.07
2022-12-15T12:33:36.747Z,20.20
2022-12-15T12:36:10.955Z,21.33
2022-12-15T12:38:58.148Z,18.67
2022-12-15T12:41:39.535Z,22.63
2022-12-15T12:44:38.651Z,21.50
2022-12-15T12:47:20.190Z,21.80
2022-12-15T12:49:58.837Z,23.10
2022-12-15T12:52:28.191Z,23.33
2022-12-15T12:55:09.454Z,24.07
2022-12-15T12:57:39.229Z,27.33
2022-12-15T13:00:08.666Z,29.23
2022-12-15T13:02:37.009Z,31.20
2022-12-15T13:05:35.590Z,29.20
2022-12-15T13:08:08.182Z,26.13
2022-12-15T13:10:48.298Z,27.13
2022-12-15T13:13:30.123Z,25.57
2022-12-15T13:16:11.864Z,24.70
2022-12-15T13:18:58.990Z,25.77
2022-12-15T13:21:44.048Z,25.10
2022-12-15T13:24:25.612Z,23.23
2022-12-15T13:26:52.972Z,20.73
2022-12-15T13:29:25.584Z,25.50
2022-12-15T13:31:53.275Z,24.90
2022-12-15T13:34:28.680Z,26.63
2022-12-15T13:36:57.250Z,21.60
2022-12-15T13:39:29.972Z,22.27
2022-12-15T13:44:51.909Z,23.27
2022-12-15T13:47:30.089Z,24.47
2022-12-15T13:50:02.280Z,25.20
2022-12-15T13:53:16.200Z,27.63
2022-12-15T13:55:27.242Z,28.60
2022-12-15T13:58:00.731Z,28.73
2022-12-15T14:00:27.473Z,27.43
2022-12-15T14:03:13.192Z,27.93
2022-12-15T14:05:42.967Z,28.37
2022-12-15T14:08:14.443Z,27.37
2022-12-15T14:10:42.087Z,26.87
2022-12-15T14:16:21.185Z,28.13
2022-12-15T14:19:23.276Z,31.50
2022-12-15T14:21:56.359Z,27.37
2022-12-15T14:24:42.761Z,30.33
2022-12-15T14:27:09.396Z,28.27
2022-12-15T14:29:36.119Z,28.90
2022-12-15T14:32:03.588Z,34.83
2022-12-15T14:34:41.787Z,29.00
2022-12-15T14:37:16.510Z,29.83
2022-12-15T14:39:46.218Z,29.83
2022-12-15T14:42:21.900Z,30.13
2022-12-15T14:47:36.012Z,28.00
2022-12-15T14:50:04.248Z,30.57
2022-12-15T14:52:39.346Z,29.97
2022-12-15T14:55:21.250Z,27.03
2022-12-15T14:57:48.909Z,30.40
2022-12-15T15:00:31.281Z,28.63
2022-12-15T15:03:09.925Z,30.47
2022-12-15T15:03:14.222Z,28.40
2022-12-15T15:03:20.031Z,29.30
2022-12-15T15:05:55.901Z,27.50
2022-12-15T15:08:35.449Z,25.07
2022-12-15T15:11:19.299Z,25.50
2022-12-15T15:13:46.958Z,23.17
2022-12-15T15:16:19.104Z,22.03
2022-12-15T15:18:54.095Z,17.60
2022-12-15T15:21:24.034Z,18.00
2022-12-15T15:24:12.203Z,17.63
2022-12-15T15:26:40.062Z,16.77
2022-12-15T15:29:42.122Z,18.03
2022-12-15T15:32:19.444Z,15.93
2022-12-15T15:34:47.304Z,21.27
2022-12-15T15:37:26.226Z,22.07
2022-12-15T15:39:56.323Z,24.13
2022-12-15T15:42:26.526Z,21.90
2022-12-15T15:44:55.800Z,24.27
2022-12-15T15:47:26.114Z,21.60
2022-12-15T15:49:54.977Z,21.40
2022-12-15T15:52:23.003Z,20.10
2022-12-15T15:54:50.147Z,17.67
2022-12-15T15:57:17.893Z,19.63
2022-12-15T15:59:45.306Z,19.73
2022-12-15T16:02:13.817Z,21.73
2022-12-15T16:04:44.825Z,18.37
2022-12-15T16:07:25.602Z,21.00
2022-12-15T16:09:53.637Z,20.50
2022-12-15T16:12:29.580Z,23.93
2022-12-15T16:14:56.562Z,22.67
2022-12-15T16:17:25.471Z,29.83
2022-12-15T16:19:52.076Z,25.43
2022-12-15T16:22:21.341Z,25.80
2022-12-15T16:24:51.732Z,21.90
2022-12-15T16:27:19.459Z,20.27
2022-12-15T16:29:46.036Z,20.43
2022-12-15T16:32:13.417Z,21.90
2022-12-15T16:34:41.628Z,21.30
2022-12-15T16:37:26.320Z,21.80
2022-12-15T16:39:53.310Z,21.37
2022-12-15T16:42:19.932Z,21.30
2022-12-15T16:44:46.569Z,27.50
2022-12-15T16:47:13.198Z,28.37
2022-12-15T16:49:40.578Z,27.47
2022-12-15T16:52:18.409Z,27.13
2022-12-15T16:54:48.874Z,28.37
2022-12-15T16:57:15.591Z,26.07
2022-12-15T16:59:42.188Z,26.37
2022-12-15T17:02:36.103Z,27.50
2022-12-15T17:05:02.881Z,23.57
2022-12-15T17:07:29.692Z,24.13
2022-12-15T17:09:56.717Z,27.17
2022-12-15T17:12:23.494Z,28.53
2022-12-15T17:14:50.026Z,31.13
2022-12-15T17:17:19.708Z,29.40
2022-12-15T17:20:19.765Z,28.37
2022-12-15T17:22:33.878Z,29.00
2022-12-15T17:25:00.524Z,30.37
2022-12-15T17:27:29.536Z,29.57
2022-12-15T17:29:59.540Z,33.83
2022-12-15T17:32:26.823Z,32.60
2022-12-15T17:34:53.470Z,27.90
2022-12-15T17:37:20.073Z,28.53
2022-12-15T17:39:51.231Z,26.77
2022-12-15T17:42:20.218Z,27.13
2022-12-15T17:44:51.806Z,26.80
2022-12-15T17:47:25.998Z,27.10
2022-12-15T17:49:58.516Z,25.43
2022-12-15T17:52:30.914Z,27.10
2022-12-15T17:54:57.985Z,30.80
2022-12-15T17:57:25.600Z,28.07
2022-12-15T17:59:58.240Z,28.97
2022-12-15T18:02:25.041Z,25.40
2022-12-15T18:04:51.951Z,25.77
2022-12-15T18:07:22.042Z,25.03
2022-12-15T18:09:50.368Z,26.83
2022-12-15T18:12:22.655Z,24.90
2022-12-15T18:14:49.757Z,22.53
2022-12-15T18:17:16.652Z,25.13
2022-12-15T18:19:46.617Z,24.70
2022-12-15T18:22:22.942Z,24.03
2022-12-15T18:24:54.095Z,23.33
2022-12-15T18:27:26.995Z,22.93
2022-12-15T18:29:54.058Z,21.67
2022-12-15T18:32:23.754Z,21.37
2022-12-15T18:35:18.901Z,21.63
2022-12-15T18:38:27.291Z,23.17
2022-12-15T18:41:00.294Z,19.73
2022-12-15T18:43:39.051Z,19.63
2022-12-15T18:46:13.452Z,20.57
2022-12-15T18:48:41.320Z,20.07
2022-12-15T18:51:22.329Z,18.97
2022-12-15T18:53:49.351Z,19.03
2022-12-15T18:56:18.191Z,17.40
2022-12-15T18:58:45.697Z,16.57
2022-12-15T19:01:12.345Z,16.33
2022-12-15T19:03:41.024Z,17.07
2022-12-15T19:06:20.303Z,15.90
2022-12-15T19:08:50.902Z,16.47
2022-12-15T19:11:30.949Z,17.57
2022-12-15T19:13:59.325Z,16.40
2022-12-15T19:16:26.852Z,17.70
2022-12-15T19:19:17.076Z,14.67
2022-12-15T19:22:02.940Z,12.50
2022-12-15T19:24:50.367Z,11.97
2022-12-15T19:27:23.250Z,13.87
2022-12-15T19:29:50.631Z,14.57
2022-12-15T19:32:17.219Z,13.17
2022-12-15T19:34:44.331Z,14.17
2022-12-15T19:37:25.166Z,14.73
2022-12-15T19:39:52.315Z,12.00
2022-12-15T19:42:28.039Z,12.83
2022-12-15T19:44:54.663Z,15.80
2022-12-15T19:47:21.482Z,15.27
2022-12-15T19:49:48.054Z,16.50
2022-12-15T19:52:16.502Z,15.33
2022-12-15T19:54:45.233Z,15.90
2022-12-15T19:57:13.084Z,15.17
2022-12-15T19:59:39.869Z,15.13
2022-12-15T20:02:09.012Z,16.00
2022-12-15T20:04:35.827Z,16.23
2022-12-15T20:07:04.193Z,18.70
2022-12-15T20:09:30.831Z,17.30
2022-12-15T20:11:57.785Z,16.20
2022-12-15T20:14:24.870Z,17.43
2022-12-15T20:16:51.604Z,16.20
2022-12-15T20:19:18.270Z,17.37
2022-12-15T20:21:47.738Z,20.17
2022-12-15T20:24:18.886Z,19.57
2022-12-15T20:26:46.644Z,21.30
2022-12-15T20:29:28.929Z,19.67
2022-12-15T20:31:57.630Z,17.77
2022-12-15T20:34:24.844Z,18.27
2022-12-15T20:36:51.705Z,19.13
2022-12-15T20:39:21.165Z,20.33
2022-12-15T20:41:47.859Z,21.57
2022-12-15T20:44:14.534Z,21.77
2022-12-15T20:46:41.606Z,28.30
2022-12-15T20:49:22.440Z,24.77
2022-12-15T20:51:49.261Z,25.20
2022-12-15T20:54:21.589Z,22.43
2022-12-15T20:56:49.468Z,20.53
2022-12-15T20:59:17.689Z,19.00
2022-12-15T21:01:44.730Z,18.60
2022-12-15T21:04:26.858Z,20.73
2022-12-15T21:06:55.240Z,18.20
2022-12-15T21:09:22.357Z,17.57
2022-12-15T21:11:49.653Z,18.00
2022-12-15T21:14:19.621Z,21.20
2022-12-15T21:16:46.947Z,17.77
2022-12-15T21:19:20.262Z,22.97
2022-12-15T21:21:51.894Z,20.50
2022-12-15T21:24:24.997Z,20.83
2022-12-15T21:26:52.003Z,20.20
2022-12-15T21:29:24.963Z,17.90
2022-12-15T21:31:51.744Z,17.13
2022-12-15T21:34:18.407Z,15.97
2022-12-15T21:36:47.687Z,16.67
2022-12-15T21:39:34.147Z,16.20
2022-12-15T21:42:11.436Z,16.50
2022-12-15T21:44:38.052Z,17.57
2022-12-15T21:47:47.109Z,17.20
2022-12-15T21:50:14.854Z,18.10
2022-12-15T21:52:41.798Z,16.87
2022-12-15T21:55:21.265Z,17.83
2022-12-15T21:57:47.963Z,18.77
2022-12-15T22:00:17.513Z,19.60
2022-12-15T22:02:45.606Z,18.27
2022-12-15T22:05:20.640Z,19.67
2022-12-15T22:07:48.885Z,17.70
2022-12-15T22:10:16.506Z,19.03
2022-12-15T22:12:45.728Z,20.03
2022-12-15T22:15:15.554Z,19.43
2022-12-15T22:17:42.544Z,16.83
2022-12-15T22:20:21.225Z,19.53
2022-12-15T22:22:48.275Z,19.83
2022-12-15T22:25:25.770Z,19.87
2022-12-15T22:27:52.665Z,20.87
2022-12-15T22:30:25.763Z,19.73
2022-12-15T22:32:52.857Z,19.30
2022-12-15T22:35:25.938Z,19.50
2022-12-15T22:37:56.383Z,18.47
2022-12-15T22:40:24.295Z,21.00
2022-12-15T22:42:57.693Z,18.63
2022-12-15T22:45:24.419Z,19.60
2022-12-15T22:47:52.438Z,20.57
2022-12-15T22:50:22.059Z,21.60
2022-12-15T22:52:48.786Z,19.20
2022-12-15T22:55:17.764Z,20.77
2022-12-15T22:57:50.332Z,20.93
2022-12-15T23:00:17.983Z,20.93
2022-12-15T23:02:46.502Z,19.87
2022-12-15T23:05:16.004Z,21.90
2022-12-15T23:07:44.243Z,21.47
2022-12-15T23:10:33.003Z,20.53
2022-12-15T23:12:59.719Z,20.07
2022-12-15T23:15:46.615Z,20.63
2022-12-15T23:18:13.734Z,25.80
2022-12-15T23:20:41.338Z,22.20
2022-12-15T23:23:08.426Z,21.97
2022-12-15T23:25:35.043Z,20.90
2022-12-15T23:28:02.116Z,18.33
2022-12-15T23:30:28.757Z,20.43
2022-12-15T23:32:55.608Z,18.37
2022-12-15T23:35:22.541Z,18.43
2022-12-15T23:37:49.269Z,18.07
2022-12-15T23:40:22.190Z,18.70
2022-12-15T23:42:50.517Z,18.10
2022-12-15T23:45:18.197Z,17.23
2022-12-15T23:47:44.889Z,16.13
2022-12-15T23:50:11.785Z,16.30
2022-12-15T23:52:38.427Z,16.37
2022-12-15T23:55:05.516Z,16.40
2022-12-15T23:57:32.146Z,16.10
2022-12-15T23:59:58.845Z,15.80
